Airfield :
LOGIN :

Register | Disclaimer

   EN    FR    IT 

 










Legend :    VFR   Marginal VFR   IFR   Intensive IFR   Very Intensive IFR
Visi :
Ceiling :
>= 8 km
>= 3000ft
5 to 8 km
1000 to 3000 ft
1500m to 5 km
500 to 1000 ft
800 to 1500m
200 to 500 ft
< 800m
< 200 ft
Symbols :   Thunderstorms  Fog  Heavy snow  Heavy precipitations  Wind > 20 kt
SIGMETs :     Misc.  Thunderstorms  Icing  Turbulence  Mountain Waves  Volcanic Ashes







- Airport Elevation : 30 ft
- IATA code : CFN


EIDL - Donegal

CURRENT METAR :
  • 181800Z 24014KT 9000 -RA OVC005 10/09 Q1013

EXPIRED METARs :
  • 181730Z 23014KT 9999 -RA OVC005 09/09 Q1013
  • 181700Z 24015KT 8000 -RA OVC004 09/09 Q1013
  • 181630Z 23014KT 4200 -RA OVC003 09/09 Q1013
  • 181600Z 23015KT 6000 -RA OVC003 09/09 Q1013 RERA
  • 181530Z 23014KT 8000 -RA OVC003 10/09 Q1013

TAF TAF EIDL
Valid from the 18 at 18:00 until the 18 at 21:00 UTC


181700Z 1818/1821 23015KT 9999 BKN005
TEMPO 1818/1821 4000 -DZ BR BKN003
PROB30
TEMPO 1818/1821 BKN001
No reported NOTAMs for that airfield.



MET'MAP, your aeronautical weather chart ! - Copyright ORBIFLY December 2007 - Disclaimer

ORBIFLY MET'MAP TEAM :

Programming & Development : Alexandra Zaïnal
Concept & Development : Baudouin d'Aumeries
Co-Development & Prog : Marc-Olivier Méhu
Technical & hardware support : Manuel Goepfert

Contact : metmap@orbifly.com




SOURCES & CREDITS :

   NOAA